sensor_id;sensor_type;location;lat;lon;timestamp;temperature;humidity
73750;SHT30;62058;48.406;-4.514;2022-08-24T00:01:16;20.99;81.90
73750;SHT30;62058;48.406;-4.514;2022-08-24T00:03:43;21.01;81.31
73750;SHT30;62058;48.406;-4.514;2022-08-24T00:06:11;21.03;81.26
73750;SHT30;62058;48.406;-4.514;2022-08-24T00:08:38;21.01;81.02
73750;SHT30;62058;48.406;-4.514;2022-08-24T00:11:04;21.01;81.08
73750;SHT30;62058;48.406;-4.514;2022-08-24T00:13:31;21.03;81.63
73750;SHT30;62058;48.406;-4.514;2022-08-24T00:15:57;21.04;80.45
73750;SHT30;62058;48.406;-4.514;2022-08-24T00:18:22;21.07;80.66
73750;SHT30;62058;48.406;-4.514;2022-08-24T00:20:48;21.07;81.29
73750;SHT30;62058;48.406;-4.514;2022-08-24T00:23:14;21.06;80.97
73750;SHT30;62058;48.406;-4.514;2022-08-24T00:25:41;21.08;81.21
73750;SHT30;62058;48.406;-4.514;2022-08-24T00:28:06;21.06;81.16
73750;SHT30;62058;48.406;-4.514;2022-08-24T00:30:33;21.06;81.10
73750;SHT30;62058;48.406;-4.514;2022-08-24T00:32:58;21.08;80.94
73750;SHT30;62058;48.406;-4.514;2022-08-24T00:35:24;21.10;80.25
73750;SHT30;62058;48.406;-4.514;2022-08-24T00:37:51;21.10;80.83
73750;SHT30;62058;48.406;-4.514;2022-08-24T00:40:44;21.08;80.70
73750;SHT30;62058;48.406;-4.514;2022-08-24T00:43:10;21.10;80.62
73750;SHT30;62058;48.406;-4.514;2022-08-24T00:45:47;21.10;80.50
73750;SHT30;62058;48.406;-4.514;2022-08-24T00:48:19;21.04;80.98
73750;SHT30;62058;48.406;-4.514;2022-08-24T00:50:54;21.06;80.54
73750;SHT30;62058;48.406;-4.514;2022-08-24T00:53:28;21.06;80.80
73750;SHT30;62058;48.406;-4.514;2022-08-24T00:55:57;21.06;80.35
73750;SHT30;62058;48.406;-4.514;2022-08-24T00:58:29;21.04;80.23
73750;SHT30;62058;48.406;-4.514;2022-08-24T01:00:59;21.03;80.08
73750;SHT30;62058;48.406;-4.514;2022-08-24T01:03:27;21.03;80.37
73750;SHT30;62058;48.406;-4.514;2022-08-24T01:05:53;21.03;80.19
73750;SHT30;62058;48.406;-4.514;2022-08-24T01:08:19;21.03;80.36
73750;SHT30;62058;48.406;-4.514;2022-08-24T01:10:52;21.01;80.30
73750;SHT30;62058;48.406;-4.514;2022-08-24T01:13:20;20.97;80.43
73750;SHT30;62058;48.406;-4.514;2022-08-24T01:15:49;21.00;80.63
73750;SHT30;62058;48.406;-4.514;2022-08-24T01:18:17;21.03;80.15
73750;SHT30;62058;48.406;-4.514;2022-08-24T01:21:17;21.01;80.79
73750;SHT30;62058;48.406;-4.514;2022-08-24T01:23:58;20.97;80.32
73750;SHT30;62058;48.406;-4.514;2022-08-24T01:26:34;20.97;80.14
73750;SHT30;62058;48.406;-4.514;2022-08-24T01:29:16;20.93;80.68
73750;SHT30;62058;48.406;-4.514;2022-08-24T01:31:42;20.96;80.88
73750;SHT30;62058;48.406;-4.514;2022-08-24T01:34:08;20.94;80.05
73750;SHT30;62058;48.406;-4.514;2022-08-24T01:36:41;20.94;80.31
73750;SHT30;62058;48.406;-4.514;2022-08-24T01:39:15;20.94;80.35
73750;SHT30;62058;48.406;-4.514;2022-08-24T01:41:41;20.90;80.06
73750;SHT30;62058;48.406;-4.514;2022-08-24T01:44:08;20.86;80.43
73750;SHT30;62058;48.406;-4.514;2022-08-24T01:46:34;20.90;79.78
73750;SHT30;62058;48.406;-4.514;2022-08-24T01:49:00;20.90;79.75
73750;SHT30;62058;48.406;-4.514;2022-08-24T01:51:31;20.89;80.12
73750;SHT30;62058;48.406;-4.514;2022-08-24T01:53:58;20.87;80.13
73750;SHT30;62058;48.406;-4.514;2022-08-24T01:56:24;20.83;80.25
73750;SHT30;62058;48.406;-4.514;2022-08-24T01:58:49;20.77;80.23
73750;SHT30;62058;48.406;-4.514;2022-08-24T02:01:16;20.77;80.45
73750;SHT30;62058;48.406;-4.514;2022-08-24T02:03:42;20.73;80.31
73750;SHT30;62058;48.406;-4.514;2022-08-24T02:06:07;20.73;80.40
73750;SHT30;62058;48.406;-4.514;2022-08-24T02:08:33;20.70;80.49
73750;SHT30;62058;48.406;-4.514;2022-08-24T02:11:01;20.66;80.89
73750;SHT30;62058;48.406;-4.514;2022-08-24T02:13:26;20.66;80.19
73750;SHT30;62058;48.406;-4.514;2022-08-24T02:15:53;20.69;81.30
73750;SHT30;62058;48.406;-4.514;2022-08-24T02:18:18;20.72;81.07
73750;SHT30;62058;48.406;-4.514;2022-08-24T02:20:44;20.66;80.93
73750;SHT30;62058;48.406;-4.514;2022-08-24T02:23:09;20.65;81.00
73750;SHT30;62058;48.406;-4.514;2022-08-24T02:25:35;20.70;80.70
73750;SHT30;62058;48.406;-4.514;2022-08-24T02:28:01;20.70;80.47
73750;SHT30;62058;48.406;-4.514;2022-08-24T02:30:28;20.67;80.79
73750;SHT30;62058;48.406;-4.514;2022-08-24T02:32:53;20.67;80.49
73750;SHT30;62058;48.406;-4.514;2022-08-24T02:35:19;20.63;81.18
73750;SHT30;62058;48.406;-4.514;2022-08-24T02:37:45;20.63;81.05
73750;SHT30;62058;48.406;-4.514;2022-08-24T02:40:11;20.65;80.43
73750;SHT30;62058;48.406;-4.514;2022-08-24T02:42:37;20.60;81.09
73750;SHT30;62058;48.406;-4.514;2022-08-24T02:45:04;20.57;80.52
73750;SHT30;62058;48.406;-4.514;2022-08-24T02:47:29;20.56;82.30
73750;SHT30;62058;48.406;-4.514;2022-08-24T02:49:55;20.49;82.15
73750;SHT30;62058;48.406;-4.514;2022-08-24T02:52:21;20.39;82.13
73750;SHT30;62058;48.406;-4.514;2022-08-24T02:54:46;20.40;81.95
73750;SHT30;62058;48.406;-4.514;2022-08-24T02:57:12;20.42;82.19
73750;SHT30;62058;48.406;-4.514;2022-08-24T02:59:37;20.38;81.45
73750;SHT30;62058;48.406;-4.514;2022-08-24T03:02:03;20.35;82.79
73750;SHT30;62058;48.406;-4.514;2022-08-24T03:04:29;20.35;81.70
73750;SHT30;62058;48.406;-4.514;2022-08-24T03:06:54;20.32;82.15
73750;SHT30;62058;48.406;-4.514;2022-08-24T03:09:19;20.32;83.05
73750;SHT30;62058;48.406;-4.514;2022-08-24T03:11:45;20.28;82.96
73750;SHT30;62058;48.406;-4.514;2022-08-24T03:14:10;20.25;83.32
73750;SHT30;62058;48.406;-4.514;2022-08-24T03:16:36;20.21;82.29
73750;SHT30;62058;48.406;-4.514;2022-08-24T03:19:03;20.14;82.26
73750;SHT30;62058;48.406;-4.514;2022-08-24T03:21:28;20.12;82.73
73750;SHT30;62058;48.406;-4.514;2022-08-24T03:23:54;20.09;83.45
73750;SHT30;62058;48.406;-4.514;2022-08-24T03:26:19;20.12;82.42
73750;SHT30;62058;48.406;-4.514;2022-08-24T03:28:45;20.12;83.34
73750;SHT30;62058;48.406;-4.514;2022-08-24T03:31:11;20.15;83.13
73750;SHT30;62058;48.406;-4.514;2022-08-24T03:33:36;20.21;82.29
73750;SHT30;62058;48.406;-4.514;2022-08-24T03:36:02;20.22;82.92
73750;SHT30;62058;48.406;-4.514;2022-08-24T03:38:27;20.28;83.26
73750;SHT30;62058;48.406;-4.514;2022-08-24T03:40:54;20.29;82.12
73750;SHT30;62058;48.406;-4.514;2022-08-24T03:43:19;20.30;82.15
73750;SHT30;62058;48.406;-4.514;2022-08-24T03:46:25;20.28;82.79
73750;SHT30;62058;48.406;-4.514;2022-08-24T03:48:54;20.29;83.01
73750;SHT30;62058;48.406;-4.514;2022-08-24T03:51:22;20.28;82.75
73750;SHT30;62058;48.406;-4.514;2022-08-24T03:53:49;20.30;82.63
73750;SHT30;62058;48.406;-4.514;2022-08-24T03:56:15;20.24;83.21
73750;SHT30;62058;48.406;-4.514;2022-08-24T03:58:43;20.22;83.42
73750;SHT30;62058;48.406;-4.514;2022-08-24T04:01:09;20.21;83.12
73750;SHT30;62058;48.406;-4.514;2022-08-24T04:03:40;20.21;83.06
73750;SHT30;62058;48.406;-4.514;2022-08-24T04:06:07;20.25;83.37
73750;SHT30;62058;48.406;-4.514;2022-08-24T04:08:33;20.24;83.18
73750;SHT30;62058;48.406;-4.514;2022-08-24T04:11:00;20.21;83.49
73750;SHT30;62058;48.406;-4.514;2022-08-24T04:13:26;20.19;83.57
73750;SHT30;62058;48.406;-4.514;2022-08-24T04:16:05;20.21;83.70
73750;SHT30;62058;48.406;-4.514;2022-08-24T04:18:31;20.26;83.45
73750;SHT30;62058;48.406;-4.514;2022-08-24T04:20:57;20.26;83.59
73750;SHT30;62058;48.406;-4.514;2022-08-24T04:23:22;20.28;83.30
73750;SHT30;62058;48.406;-4.514;2022-08-24T04:25:48;20.30;83.32
73750;SHT30;62058;48.406;-4.514;2022-08-24T04:28:15;20.33;82.92
73750;SHT30;62058;48.406;-4.514;2022-08-24T04:30:46;20.36;83.03
73750;SHT30;62058;48.406;-4.514;2022-08-24T04:33:16;20.39;82.92
73750;SHT30;62058;48.406;-4.514;2022-08-24T04:35:43;20.35;83.11
73750;SHT30;62058;48.406;-4.514;2022-08-24T04:38:10;20.35;83.17
73750;SHT30;62058;48.406;-4.514;2022-08-24T04:40:40;20.43;82.95
73750;SHT30;62058;48.406;-4.514;2022-08-24T04:43:06;20.40;82.95
73750;SHT30;62058;48.406;-4.514;2022-08-24T04:45:37;20.40;82.86
73750;SHT30;62058;48.406;-4.514;2022-08-24T04:48:03;20.45;82.68
73750;SHT30;62058;48.406;-4.514;2022-08-24T04:50:29;20.40;82.65
73750;SHT30;62058;48.406;-4.514;2022-08-24T04:52:54;20.35;82.85
73750;SHT30;62058;48.406;-4.514;2022-08-24T04:55:19;20.35;83.04
73750;SHT30;62058;48.406;-4.514;2022-08-24T04:57:45;20.36;82.41
73750;SHT30;62058;48.406;-4.514;2022-08-24T05:00:11;20.35;82.92
73750;SHT30;62058;48.406;-4.514;2022-08-24T05:02:37;20.35;82.74
73750;SHT30;62058;48.406;-4.514;2022-08-24T05:05:11;20.39;82.71
73750;SHT30;62058;48.406;-4.514;2022-08-24T05:07:37;20.40;82.40
73750;SHT30;62058;48.406;-4.514;2022-08-24T05:10:06;20.40;82.51
73750;SHT30;62058;48.406;-4.514;2022-08-24T05:12:32;20.35;83.01
73750;SHT30;62058;48.406;-4.514;2022-08-24T05:14:58;20.35;82.83
73750;SHT30;62058;48.406;-4.514;2022-08-24T05:17:24;20.38;82.90
73750;SHT30;62058;48.406;-4.514;2022-08-24T05:19:50;20.36;82.32
73750;SHT30;62058;48.406;-4.514;2022-08-24T05:22:16;20.38;83.20
73750;SHT30;62058;48.406;-4.514;2022-08-24T05:24:42;20.33;82.90
73750;SHT30;62058;48.406;-4.514;2022-08-24T05:27:07;20.33;83.46
73750;SHT30;62058;48.406;-4.514;2022-08-24T05:29:33;20.30;83.27
73750;SHT30;62058;48.406;-4.514;2022-08-24T05:31:59;20.28;83.53
73750;SHT30;62058;48.406;-4.514;2022-08-24T05:34:25;20.28;83.05
73750;SHT30;62058;48.406;-4.514;2022-08-24T05:36:50;20.29;83.26
73750;SHT30;62058;48.406;-4.514;2022-08-24T05:39:16;20.32;83.39
73750;SHT30;62058;48.406;-4.514;2022-08-24T05:41:43;20.30;82.56
73750;SHT30;62058;48.406;-4.514;2022-08-24T05:44:09;20.30;82.84
73750;SHT30;62058;48.406;-4.514;2022-08-24T05:46:35;20.29;82.72
73750;SHT30;62058;48.406;-4.514;2022-08-24T05:49:00;20.38;82.99
73750;SHT30;62058;48.406;-4.514;2022-08-24T05:51:26;20.45;82.58
73750;SHT30;62058;48.406;-4.514;2022-08-24T05:53:52;20.53;82.49
73750;SHT30;62058;48.406;-4.514;2022-08-24T05:56:18;20.56;82.04
73750;SHT30;62058;48.406;-4.514;2022-08-24T05:58:44;20.63;82.17
73750;SHT30;62058;48.406;-4.514;2022-08-24T06:03:38;20.73;82.11
73750;SHT30;62058;48.406;-4.514;2022-08-24T06:06:07;20.77;81.67
73750;SHT30;62058;48.406;-4.514;2022-08-24T06:08:35;20.83;81.77
73750;SHT30;62058;48.406;-4.514;2022-08-24T06:11:01;20.89;81.21
73750;SHT30;62058;48.406;-4.514;2022-08-24T06:13:27;20.94;81.10
73750;SHT30;62058;48.406;-4.514;2022-08-24T06:16:22;21.01;81.21
73750;SHT30;62058;48.406;-4.514;2022-08-24T06:18:49;21.08;80.67
73750;SHT30;62058;48.406;-4.514;2022-08-24T06:21:18;21.14;80.61
73750;SHT30;62058;48.406;-4.514;2022-08-24T06:23:44;21.20;80.63
73750;SHT30;62058;48.406;-4.514;2022-08-24T06:26:11;21.24;80.48
73750;SHT30;62058;48.406;-4.514;2022-08-24T06:28:55;21.27;80.09
73750;SHT30;62058;48.406;-4.514;2022-08-24T06:31:21;21.28;80.23
73750;SHT30;62058;48.406;-4.514;2022-08-24T06:33:49;21.35;80.24
73750;SHT30;62058;48.406;-4.514;2022-08-24T06:36:15;21.35;80.27
73750;SHT30;62058;48.406;-4.514;2022-08-24T06:38:40;21.38;80.10
73750;SHT30;62058;48.406;-4.514;2022-08-24T06:41:06;21.44;79.97
73750;SHT30;62058;48.406;-4.514;2022-08-24T06:43:32;21.47;80.17
73750;SHT30;62058;48.406;-4.514;2022-08-24T06:45:58;21.52;79.86
73750;SHT30;62058;48.406;-4.514;2022-08-24T06:48:23;21.59;79.79
73750;SHT30;62058;48.406;-4.514;2022-08-24T06:50:49;21.63;79.84
73750;SHT30;62058;48.406;-4.514;2022-08-24T06:53:15;21.66;79.57
73750;SHT30;62058;48.406;-4.514;2022-08-24T06:55:49;21.75;79.37
73750;SHT30;62058;48.406;-4.514;2022-08-24T06:58:16;21.79;77.78
73750;SHT30;62058;48.406;-4.514;2022-08-24T07:00:41;21.81;78.90
73750;SHT30;62058;48.406;-4.514;2022-08-24T07:03:07;21.89;78.82
73750;SHT30;62058;48.406;-4.514;2022-08-24T07:05:32;22.02;78.48
73750;SHT30;62058;48.406;-4.514;2022-08-24T07:07:59;22.08;78.22
73750;SHT30;62058;48.406;-4.514;2022-08-24T07:10:25;22.13;77.96
73750;SHT30;62058;48.406;-4.514;2022-08-24T07:12:50;22.19;77.99
73750;SHT30;62058;48.406;-4.514;2022-08-24T07:15:16;22.24;77.69
73750;SHT30;62058;48.406;-4.514;2022-08-24T07:17:46;22.35;77.25
73750;SHT30;62058;48.406;-4.514;2022-08-24T07:20:11;22.35;77.40
73750;SHT30;62058;48.406;-4.514;2022-08-24T07:22:38;22.37;76.55
73750;SHT30;62058;48.406;-4.514;2022-08-24T07:25:04;22.46;76.73
73750;SHT30;62058;48.406;-4.514;2022-08-24T07:27:32;22.53;76.53
73750;SHT30;62058;48.406;-4.514;2022-08-24T07:29:57;22.60;76.40
73750;SHT30;62058;48.406;-4.514;2022-08-24T07:32:22;22.66;76.02
73750;SHT30;62058;48.406;-4.514;2022-08-24T07:34:48;22.71;75.81
73750;SHT30;62058;48.406;-4.514;2022-08-24T07:37:13;22.66;75.40
73750;SHT30;62058;48.406;-4.514;2022-08-24T07:39:39;22.54;75.99
73750;SHT30;62058;48.406;-4.514;2022-08-24T07:42:04;22.52;76.35
73750;SHT30;62058;48.406;-4.514;2022-08-24T07:44:30;22.63;76.22
73750;SHT30;62058;48.406;-4.514;2022-08-24T07:46:56;22.67;76.22
73750;SHT30;62058;48.406;-4.514;2022-08-24T07:49:21;22.70;76.28
73750;SHT30;62058;48.406;-4.514;2022-08-24T07:51:47;22.73;76.11
73750;SHT30;62058;48.406;-4.514;2022-08-24T07:54:13;22.76;75.82
73750;SHT30;62058;48.406;-4.514;2022-08-24T07:56:38;22.80;75.26
73750;SHT30;62058;48.406;-4.514;2022-08-24T07:59:04;22.84;75.58
73750;SHT30;62058;48.406;-4.514;2022-08-24T08:01:29;22.91;75.15
73750;SHT30;62058;48.406;-4.514;2022-08-24T08:03:55;22.95;74.97
73750;SHT30;62058;48.406;-4.514;2022-08-24T08:06:20;23.00;74.62
73750;SHT30;62058;48.406;-4.514;2022-08-24T08:08:46;23.03;74.51
73750;SHT30;62058;48.406;-4.514;2022-08-24T08:11:11;23.05;74.30
73750;SHT30;62058;48.406;-4.514;2022-08-24T08:13:37;23.11;74.31
73750;SHT30;62058;48.406;-4.514;2022-08-24T08:16:04;23.14;72.91
73750;SHT30;62058;48.406;-4.514;2022-08-24T08:18:30;23.15;74.19
73750;SHT30;62058;48.406;-4.514;2022-08-24T08:20:56;23.31;72.69
73750;SHT30;62058;48.406;-4.514;2022-08-24T08:23:22;23.42;73.53
73750;SHT30;62058;48.406;-4.514;2022-08-24T08:26:06;23.63;73.44
73750;SHT30;62058;48.406;-4.514;2022-08-24T08:28:37;23.83;72.17
73750;SHT30;62058;48.406;-4.514;2022-08-24T08:31:03;24.03;72.61
73750;SHT30;62058;48.406;-4.514;2022-08-24T08:33:29;24.21;71.69
73750;SHT30;62058;48.406;-4.514;2022-08-24T08:36:06;24.39;72.15
73750;SHT30;62058;48.406;-4.514;2022-08-24T08:38:33;24.61;69.76
73750;SHT30;62058;48.406;-4.514;2022-08-24T08:43:52;24.92;69.70
73750;SHT30;62058;48.406;-4.514;2022-08-24T08:49:14;25.39;70.61
73750;SHT30;62058;48.406;-4.514;2022-08-24T08:52:04;25.65;67.59
73750;SHT30;62058;48.406;-4.514;2022-08-24T09:02:37;26.04;68.33
73750;SHT30;62058;48.406;-4.514;2022-08-24T09:08:43;25.98;66.98
73750;SHT30;62058;48.406;-4.514;2022-08-24T09:11:28;25.98;66.39
73750;SHT30;62058;48.406;-4.514;2022-08-24T09:19:41;25.83;66.95
73750;SHT30;62058;48.406;-4.514;2022-08-24T09:22:12;25.82;64.33
73750;SHT30;62058;48.406;-4.514;2022-08-24T09:35:09;25.61;64.99
73750;SHT30;62058;48.406;-4.514;2022-08-24T09:49:04;25.94;63.86
73750;SHT30;62058;48.406;-4.514;2022-08-24T10:05:18;26.99;60.21
73750;SHT30;62058;48.406;-4.514;2022-08-24T10:10:49;26.87;61.74
73750;SHT30;62058;48.406;-4.514;2022-08-24T10:16:22;27.12;60.89
73750;SHT30;62058;48.406;-4.514;2022-08-24T10:21:39;27.23;60.70
73750;SHT30;62058;48.406;-4.514;2022-08-24T10:30:08;26.91;60.62
73750;SHT30;62058;48.406;-4.514;2022-08-24T10:32:52;26.78;60.20
73750;SHT30;62058;48.406;-4.514;2022-08-24T10:35:27;26.49;61.13
73750;SHT30;62058;48.406;-4.514;2022-08-24T10:38:30;26.52;61.56
73750;SHT30;62058;48.406;-4.514;2022-08-24T10:41:31;26.69;61.94
73750;SHT30;62058;48.406;-4.514;2022-08-24T10:44:27;26.89;59.99
73750;SHT30;62058;48.406;-4.514;2022-08-24T10:47:10;27.08;60.75
73750;SHT30;62058;48.406;-4.514;2022-08-24T10:54:39;27.35;58.98
73750;SHT30;62058;48.406;-4.514;2022-08-24T10:57:06;27.49;60.18
73750;SHT30;62058;48.406;-4.514;2022-08-24T10:59:58;27.57;57.36
73750;SHT30;62058;48.406;-4.514;2022-08-24T11:05:02;27.63;57.55
73750;SHT30;62058;48.406;-4.514;2022-08-24T11:07:27;27.43;54.71
73750;SHT30;62058;48.406;-4.514;2022-08-24T11:09:59;27.28;56.75
73750;SHT30;62058;48.406;-4.514;2022-08-24T11:12:29;27.23;57.94
73750;SHT30;62058;48.406;-4.514;2022-08-24T11:14:58;27.26;57.21
73750;SHT30;62058;48.406;-4.514;2022-08-24T11:17:26;27.35;56.81
73750;SHT30;62058;48.406;-4.514;2022-08-24T11:19:52;27.35;56.30
73750;SHT30;62058;48.406;-4.514;2022-08-24T11:24:47;27.40;56.22
73750;SHT30;62058;48.406;-4.514;2022-08-24T11:35:00;26.58;57.31
73750;SHT30;62058;48.406;-4.514;2022-08-24T11:37:35;26.52;57.36
73750;SHT30;62058;48.406;-4.514;2022-08-24T11:40:03;26.57;56.57
73750;SHT30;62058;48.406;-4.514;2022-08-24T11:45:42;26.75;56.87
73750;SHT30;62058;48.406;-4.514;2022-08-24T11:51:31;27.09;56.06
73750;SHT30;62058;48.406;-4.514;2022-08-24T11:57:15;27.05;56.97
73750;SHT30;62058;48.406;-4.514;2022-08-24T11:59:55;27.05;56.19
73750;SHT30;62058;48.406;-4.514;2022-08-24T12:19:10;27.86;52.34
73750;SHT30;62058;48.406;-4.514;2022-08-24T12:21:40;28.25;51.02
73750;SHT30;62058;48.406;-4.514;2022-08-24T12:24:40;28.80;50.39
73750;SHT30;62058;48.406;-4.514;2022-08-24T12:27:11;29.17;51.00
73750;SHT30;62058;48.406;-4.514;2022-08-24T12:29:50;29.36;50.09
73750;SHT30;62058;48.406;-4.514;2022-08-24T12:34:57;29.96;49.18
73750;SHT30;62058;48.406;-4.514;2022-08-24T12:37:57;30.41;47.98
73750;SHT30;62058;48.406;-4.514;2022-08-24T12:40:32;30.92;49.32
73750;SHT30;62058;48.406;-4.514;2022-08-24T12:43:04;31.26;47.25
73750;SHT30;62058;48.406;-4.514;2022-08-24T12:45:30;31.51;46.62
73750;SHT30;62058;48.406;-4.514;2022-08-24T12:59:02;32.56;43.76
73750;SHT30;62058;48.406;-4.514;2022-08-24T13:01:33;32.76;42.28
73750;SHT30;62058;48.406;-4.514;2022-08-24T13:17:45;34.01;41.01
73750;SHT30;62058;48.406;-4.514;2022-08-24T13:22:47;34.42;39.34
73750;SHT30;62058;48.406;-4.514;2022-08-24T13:25:37;34.01;40.22
73750;SHT30;62058;48.406;-4.514;2022-08-24T13:28:09;33.89;38.02
73750;SHT30;62058;48.406;-4.514;2022-08-24T13:45:16;36.84;34.41
73750;SHT30;62058;48.406;-4.514;2022-08-24T13:48:00;36.59;34.60
73750;SHT30;62058;48.406;-4.514;2022-08-24T13:55:50;37.18;33.71
73750;SHT30;62058;48.406;-4.514;2022-08-24T14:07:13;36.22;37.52
73750;SHT30;62058;48.406;-4.514;2022-08-24T14:23:01;31.82;43.92
73750;SHT30;62058;48.406;-4.514;2022-08-24T14:25:31;31.20;44.69
73750;SHT30;62058;48.406;-4.514;2022-08-24T14:46:52;29.33;49.19
73750;SHT30;62058;48.406;-4.514;2022-08-24T14:49:31;29.67;48.57
73750;SHT30;62058;48.406;-4.514;2022-08-24T14:52:19;30.07;48.33
73750;SHT30;62058;48.406;-4.514;2022-08-24T14:57:49;31.14;45.63
73750;SHT30;62058;48.406;-4.514;2022-08-24T15:00:22;31.00;46.09
73750;SHT30;62058;48.406;-4.514;2022-08-24T15:03:23;30.61;46.20
73750;SHT30;62058;48.406;-4.514;2022-08-24T15:06:04;30.35;46.94
73750;SHT30;62058;48.406;-4.514;2022-08-24T15:08:34;30.33;46.91
73750;SHT30;62058;48.406;-4.514;2022-08-24T15:11:12;30.62;46.99
73750;SHT30;62058;48.406;-4.514;2022-08-24T15:14:04;30.84;46.45
73750;SHT30;62058;48.406;-4.514;2022-08-24T15:24:33;31.47;44.65
73750;SHT30;62058;48.406;-4.514;2022-08-24T15:27:09;32.60;43.18
73750;SHT30;62058;48.406;-4.514;2022-08-24T15:29:47;33.64;41.51
73750;SHT30;62058;48.406;-4.514;2022-08-24T15:32:14;33.51;39.72
73750;SHT30;62058;48.406;-4.514;2022-08-24T15:37:06;33.34;40.88
73750;SHT30;62058;48.406;-4.514;2022-08-24T15:39:32;33.84;41.11
73750;SHT30;62058;48.406;-4.514;2022-08-24T15:41:58;35.11;38.55
73750;SHT30;62058;48.406;-4.514;2022-08-24T15:44:28;34.74;39.27
73750;SHT30;62058;48.406;-4.514;2022-08-24T15:47:00;33.89;39.01
73750;SHT30;62058;48.406;-4.514;2022-08-24T15:49:34;33.20;40.39
73750;SHT30;62058;48.406;-4.514;2022-08-24T15:52:06;32.55;41.44
73750;SHT30;62058;48.406;-4.514;2022-08-24T15:54:45;32.19;42.32
73750;SHT30;62058;48.406;-4.514;2022-08-24T15:57:33;32.05;42.28
73750;SHT30;62058;48.406;-4.514;2022-08-24T16:00:12;31.64;42.98
73750;SHT30;62058;48.406;-4.514;2022-08-24T16:02:38;31.47;43.32
73750;SHT30;62058;48.406;-4.514;2022-08-24T16:13:27;29.90;46.04
73750;SHT30;62058;48.406;-4.514;2022-08-24T16:16:08;29.68;46.57
73750;SHT30;62058;48.406;-4.514;2022-08-24T16:18:54;29.56;47.05
73750;SHT30;62058;48.406;-4.514;2022-08-24T16:32:21;29.54;46.66
73750;SHT30;62058;48.406;-4.514;2022-08-24T16:34:53;29.30;47.13
73750;SHT30;62058;48.406;-4.514;2022-08-24T16:37:20;29.43;47.25
73750;SHT30;62058;48.406;-4.514;2022-08-24T16:39:46;29.96;46.79
73750;SHT30;62058;48.406;-4.514;2022-08-24T16:42:21;30.68;45.34
73750;SHT30;62058;48.406;-4.514;2022-08-24T16:44:47;30.52;45.27
73750;SHT30;62058;48.406;-4.514;2022-08-24T16:47:12;30.09;45.62
73750;SHT30;62058;48.406;-4.514;2022-08-24T16:49:38;29.73;46.30
73750;SHT30;62058;48.406;-4.514;2022-08-24T16:52:05;29.58;46.83
73750;SHT30;62058;48.406;-4.514;2022-08-24T16:54:31;29.73;46.60
73750;SHT30;62058;48.406;-4.514;2022-08-24T16:56:58;30.89;44.98
73750;SHT30;62058;48.406;-4.514;2022-08-24T16:59:30;31.81;43.49
73750;SHT30;62058;48.406;-4.514;2022-08-24T17:01:57;31.70;43.75
73750;SHT30;62058;48.406;-4.514;2022-08-24T17:04:23;31.24;44.43
73750;SHT30;62058;48.406;-4.514;2022-08-24T17:06:48;30.65;44.63
73750;SHT30;62058;48.406;-4.514;2022-08-24T17:09:15;30.24;45.62
73750;SHT30;62058;48.406;-4.514;2022-08-24T17:11:40;29.70;46.58
73750;SHT30;62058;48.406;-4.514;2022-08-24T17:14:06;29.25;47.42
73750;SHT30;62058;48.406;-4.514;2022-08-24T17:16:32;28.78;48.32
73750;SHT30;62058;48.406;-4.514;2022-08-24T17:18:58;28.58;48.76
73750;SHT30;62058;48.406;-4.514;2022-08-24T17:21:24;28.44;49.11
73750;SHT30;62058;48.406;-4.514;2022-08-24T17:23:51;28.32;49.53
73750;SHT30;62058;48.406;-4.514;2022-08-24T17:26:17;28.24;49.58
73750;SHT30;62058;48.406;-4.514;2022-08-24T17:28:44;28.18;49.76
73750;SHT30;62058;48.406;-4.514;2022-08-24T17:31:12;28.17;49.92
73750;SHT30;62058;48.406;-4.514;2022-08-24T17:33:38;27.97;50.25
73750;SHT30;62058;48.406;-4.514;2022-08-24T17:36:04;27.69;51.02
73750;SHT30;62058;48.406;-4.514;2022-08-24T17:38:31;27.49;51.96
73750;SHT30;62058;48.406;-4.514;2022-08-24T17:40:58;27.35;51.97
73750;SHT30;62058;48.406;-4.514;2022-08-24T17:43:25;27.09;52.80
73750;SHT30;62058;48.406;-4.514;2022-08-24T17:45:51;27.12;52.81
73750;SHT30;62058;48.406;-4.514;2022-08-24T17:48:25;27.18;52.76
73750;SHT30;62058;48.406;-4.514;2022-08-24T17:50:51;27.15;52.95
73750;SHT30;62058;48.406;-4.514;2022-08-24T17:53:17;27.13;52.97
73750;SHT30;62058;48.406;-4.514;2022-08-24T17:55:42;27.19;53.08
73750;SHT30;62058;48.406;-4.514;2022-08-24T17:58:08;27.16;53.30
73750;SHT30;62058;48.406;-4.514;2022-08-24T18:00:33;27.06;53.69
73750;SHT30;62058;48.406;-4.514;2022-08-24T18:02:59;26.88;53.91
73750;SHT30;62058;48.406;-4.514;2022-08-24T18:05:24;26.62;55.38
73750;SHT30;62058;48.406;-4.514;2022-08-24T18:07:53;26.36;55.46
73750;SHT30;62058;48.406;-4.514;2022-08-24T18:10:22;26.16;56.22
73750;SHT30;62058;48.406;-4.514;2022-08-24T18:12:48;25.98;57.84
73750;SHT30;62058;48.406;-4.514;2022-08-24T18:15:14;25.94;57.34
73750;SHT30;62058;48.406;-4.514;2022-08-24T18:17:45;25.92;57.36
73750;SHT30;62058;48.406;-4.514;2022-08-24T18:20:13;25.87;58.13
73750;SHT30;62058;48.406;-4.514;2022-08-24T18:22:39;25.85;58.06
73750;SHT30;62058;48.406;-4.514;2022-08-24T18:25:13;25.76;58.26
73750;SHT30;62058;48.406;-4.514;2022-08-24T18:27:40;25.67;59.01
73750;SHT30;62058;48.406;-4.514;2022-08-24T18:30:08;25.58;59.02
73750;SHT30;62058;48.406;-4.514;2022-08-24T18:32:38;25.43;59.36
73750;SHT30;62058;48.406;-4.514;2022-08-24T18:35:03;25.35;59.17
73750;SHT30;62058;48.406;-4.514;2022-08-24T18:37:29;25.16;59.46
73750;SHT30;62058;48.406;-4.514;2022-08-24T18:39:54;24.99;59.68
73750;SHT30;62058;48.406;-4.514;2022-08-24T18:42:22;24.84;60.54
73750;SHT30;62058;48.406;-4.514;2022-08-24T18:44:49;24.72;61.40
73750;SHT30;62058;48.406;-4.514;2022-08-24T18:47:14;24.60;60.62
73750;SHT30;62058;48.406;-4.514;2022-08-24T18:49:41;24.57;61.84
73750;SHT30;62058;48.406;-4.514;2022-08-24T18:52:08;24.54;61.57
73750;SHT30;62058;48.406;-4.514;2022-08-24T18:54:36;24.39;60.90
73750;SHT30;62058;48.406;-4.514;2022-08-24T18:57:03;24.27;61.65
73750;SHT30;62058;48.406;-4.514;2022-08-24T18:59:31;24.13;62.36
73750;SHT30;62058;48.406;-4.514;2022-08-24T19:01:57;23.93;63.71
73750;SHT30;62058;48.406;-4.514;2022-08-24T19:04:46;23.73;64.32
73750;SHT30;62058;48.406;-4.514;2022-08-24T19:07:13;23.63;64.25
73750;SHT30;62058;48.406;-4.514;2022-08-24T19:09:38;23.56;64.77
73750;SHT30;62058;48.406;-4.514;2022-08-24T19:12:06;23.42;65.12
73750;SHT30;62058;48.406;-4.514;2022-08-24T19:14:34;23.31;66.67
73750;SHT30;62058;48.406;-4.514;2022-08-24T19:16:59;23.28;65.85
73750;SHT30;62058;48.406;-4.514;2022-08-24T19:19:25;23.19;66.81
73750;SHT30;62058;48.406;-4.514;2022-08-24T19:21:51;23.11;66.06
73750;SHT30;62058;48.406;-4.514;2022-08-24T19:24:21;23.12;67.66
73750;SHT30;62058;48.406;-4.514;2022-08-24T19:26:47;23.07;66.43
73750;SHT30;62058;48.406;-4.514;2022-08-24T19:29:13;23.05;66.80
73750;SHT30;62058;48.406;-4.514;2022-08-24T19:31:38;23.07;67.43